Linden, West Virginia
Current Conditions -  °F | °C
As of 9:54 AM on Tuesday 21 Oct 2014 (Local Time) from KCRW Reporting Station
Light Rain Light Rain  
Wind Chill: 54°   Ceiling: 900
Heat Index: 54°   Visibility: 8mi
Dew Point: 50°   Wind: 12mph
Humidity: 86%   Direction: 260°W
Pressure: 29.93"   Gusts: 20mph
Location:  38.72°N, 81.21°W
Report Text: KCRW 211354Z 26010G17KT 8SM -RA OVC009 12/10 A2993 RMK AO2 RAB51 SLP133 P0000 T01220100
Loading
Personal Weather Stations






























Interactive Weather Map
Tropical Storm Tracking
New forecast layout! Learn more

10-Day Weather Forecast

Advertisements
Track Severe Weather on mobile